Time;durP1;ratioP1;P1;durP2;ratioP2;P2;SDS_P1;SDS_P2;PMS_P1;PMS_P2;Temp;Humidity;BMP_temperature;BMP_pressure;BME280_temperature;BME280_humidity;BME280_pressure;Samples;Min_cycle;Max_cycle;Signal;HPM_P1;HPM_P2
2022/03/29 00:01:55;;;;;;;;;;;;;;;;;;5013377;28;19910;-55
2022/03/29 00:04:22;;;;;;;;;;;;;;;;;;5013394;28;19916;-54
2022/03/29 00:06:48;;;;;;;;;;;;;;;;;;5013211;28;20279;-55
2022/03/29 00:09:15;;;;;;;;;;;;;;;;;;5013174;28;20284;-56
2022/03/29 00:11:41;;;;;;;;;;;;;;;;;;5012885;28;20269;-54
2022/03/29 00:14:08;;;;;;;;;;;;;;;;;;5013380;28;19914;-51
2022/03/29 00:16:35;;;;;;;;;;;;;;;;;;5013224;28;19945;-57
2022/03/29 00:19:01;;;;;;;;;;;;;;;;;;5012632;28;20253;-54
2022/03/29 00:21:28;;;;;;;;;;;;;;;;;;5012541;28;19909;-57
2022/03/29 00:23:54;;;;;;;;;;;;;;;;;;5013329;28;19909;-55
2022/03/29 00:26:21;;;;;;;;;;;;;;;;;;5012619;28;20426;-58
2022/03/29 00:28:47;;;;;;;;;;;;;;;;;;5011550;28;19918;-53
2022/03/29 00:31:14;;;;;;;;;;;;;;;;;;5013046;28;19909;-53
2022/03/29 00:33:40;;;;;;;;;;;;;;;;;;5012431;28;19921;-53
2022/03/29 00:36:06;;;;;;;;;;;;;;;;;;5013022;28;19983;-56
2022/03/29 00:38:33;;;;;;;;;;;;;;;;;;5012712;28;19920;-59
2022/03/29 00:40:59;;;;;;;;;;;;;;;;;;5012806;28;19998;-55
2022/03/29 00:43:26;;;;;;;;;;;;;;;;;;5012264;28;20287;-54
2022/03/29 00:45:53;;;;;;;;;;;;;;;;;;5011972;28;19909;-57
2022/03/29 00:48:20;;;;;;;;;;;;;;;;;;5011855;28;19960;-57
2022/03/29 00:50:47;;;;;;;;;;;;;;;;;;5012080;28;19909;-52
2022/03/29 00:53:14;;;;;;;;;;;;;;;;;;5012583;28;19945;-57
2022/03/29 00:55:41;;;;;;;;;;;;;;;;;;5012024;28;19910;-56
2022/03/29 00:58:07;;;;;;;;;;;;;;;;;;5012440;28;19909;-53
2022/03/29 01:00:34;;;;;;;;;;;;;;;;;;5012104;28;19919;-55
2022/03/29 01:03:03;;;;;;;;;;;;;;;;;;5012334;28;19912;-49
2022/03/29 01:05:29;;;;;;;;;;;;;;;;;;5012704;28;20375;-57
2022/03/29 01:07:55;;;;;;;;;;;;;;;;;;5012900;28;20055;-52
2022/03/29 01:10:22;;;;;;;;;;;;;;;;;;5012672;28;19909;-57
2022/03/29 01:12:49;;;;;;;;;;;;;;;;;;5012560;28;20052;-52
2022/03/29 01:15:16;;;;;;;;;;;;;;;;;;5012271;28;19910;-55
2022/03/29 01:17:43;;;;;;;;;;;;;;;;;;5012072;28;20348;-55
2022/03/29 01:20:09;;;;;;;;;;;;;;;;;;5013059;28;19910;-54
2022/03/29 01:22:36;;;;;;;;;;;;;;;;;;5013076;28;19909;-49
2022/03/29 01:25:02;;;;;;;;;;;;;;;;;;5012098;28;19909;-58
2022/03/29 01:27:29;;;;;;;;;;;;;;;;;;5011890;28;19930;-53
2022/03/29 01:29:57;;;;;;;;;;;;;;;;;;5011760;28;20267;-51
2022/03/29 01:32:23;;;;;;;;;;;;;;;;;;5011597;28;19909;-56
2022/03/29 01:34:50;;;;;;;;;;;;;;;;;;5012689;28;20321;-47
2022/03/29 01:37:17;;;;;;;;;;;;;;;;;;5012291;28;19909;-48
2022/03/29 01:39:43;;;;;;;;;;;;;;;;;;5012163;28;19975;-55
2022/03/29 01:42:10;;;;;;;;;;;;;;;;;;5011936;28;19956;-56
2022/03/29 01:44:37;;;;;;;;;;;;;;;;;;5012409;28;19909;-53
2022/03/29 01:47:03;;;;;;;;;;;;;;;;;;5011770;28;19909;-56
2022/03/29 01:49:31;;;;;;;;;;;;;;;;;;5011983;28;20419;-57
2022/03/29 01:51:58;;;;;;;;;;;;;;;;;;5012239;28;19981;-57
2022/03/29 01:54:24;;;;;;;;;;;;;;;;;;5011741;28;19914;-52
2022/03/29 01:56:50;;;;;;;;;;;;;;;;;;5011829;28;20388;-57
2022/03/29 01:59:17;;;;;;;;;;;;;;;;;;5011910;28;19915;-52
2022/03/29 02:01:43;;;;;;;;;;;;;;;;;;5011462;28;19910;-54
2022/03/29 02:04:10;;;;;;;;;;;;;;;;;;5012197;28;20379;-49
2022/03/29 02:06:36;;;;;;;;;;;;;;;;;;5012069;28;19909;-43
2022/03/29 02:09:03;;;;;;;;;;;;;;;;;;5012315;28;20030;-47
2022/03/29 02:11:29;;;;;;;;;;;;;;;;;;5013625;28;19909;-52
2022/03/29 02:13:56;;;;;;;;;;;;;;;;;;5015222;28;19913;-48
2022/03/29 02:16:22;;;;;;;;;;;;;;;;;;5015310;28;19936;-52
2022/03/29 02:18:49;;;;;;;;;;;;;;;;;;5015355;28;19910;-54
2022/03/29 02:21:15;;;;;;;;;;;;;;;;;;5015308;28;19916;-53
2022/03/29 02:23:41;;;;;;;;;;;;;;;;;;5015238;28;19916;-56
2022/03/29 02:26:08;;;;;;;;;;;;;;;;;;5015241;28;19917;-56
2022/03/29 02:28:34;;;;;;;;;;;;;;;;;;5014783;28;20368;-58
2022/03/29 02:31:01;;;;;;;;;;;;;;;;;;5015077;28;20346;-58
2022/03/29 02:33:27;;;;;;;;;;;;;;;;;;5014791;28;20275;-50
2022/03/29 02:35:54;;;;;;;;;;;;;;;;;;5014769;28;19921;-46
2022/03/29 02:38:20;;;;;;;;;;;;;;;;;;4996837;28;20366;-52
2022/03/29 02:40:47;;;;;;;;;;;;;;;;;;4997550;28;19913;-57
2022/03/29 02:43:13;;;;;;;;;;;;;;;;;;5014955;28;19909;-54
2022/03/29 02:45:40;;;;;;;;;;;;;;;;;;5014351;28;19916;-58
2022/03/29 02:48:06;;;;;;;;;;;;;;;;;;4997072;28;20360;-55
2022/03/29 02:50:33;;;;;;;;;;;;;;;;;;5014983;28;20321;-56
2022/03/29 02:52:59;;;;;;;;;;;;;;;;;;5014607;28;19917;-55
2022/03/29 02:55:26;;;;;;;;;;;;;;;;;;5014464;28;19952;-50
2022/03/29 02:57:53;;;;;;;;;;;;;;;;;;5014850;28;20012;-57
2022/03/29 03:00:19;;;;;;;;;;;;;;;;;;5014129;28;20043;-53
2022/03/29 03:02:46;;;;;;;;;;;;;;;;;;5014377;28;20008;-56
2022/03/29 03:05:12;;;;;;;;;;;;;;;;;;5014605;28;20360;-57
2022/03/29 03:07:39;;;;;;;;;;;;;;;;;;5013352;28;19914;-56
2022/03/29 03:10:05;;;;;;;;;;;;;;;;;;4996390;28;20257;-58
2022/03/29 03:12:32;;;;;;;;;;;;;;;;;;5013883;28;19905;-55
2022/03/29 03:14:58;;;;;;;;;;;;;;;;;;5013692;28;19913;-57
2022/03/29 03:17:25;;;;;;;;;;;;;;;;;;5014314;28;19928;-44
2022/03/29 03:19:51;;;;;;;;;;;;;;;;;;5014402;28;19967;-55
2022/03/29 03:22:18;;;;;;;;;;;;;;;;;;5012306;28;19975;-46
2022/03/29 03:24:44;;;;;;;;;;;;;;;;;;5013760;28;20321;-54
2022/03/29 03:27:11;;;;;;;;;;;;;;;;;;5009685;28;19976;-51
2022/03/29 03:29:37;;;;;;;;;;;;;;;;;;5012204;28;19942;-58
2022/03/29 03:32:03;;;;;;;;;;;;;;;;;;5012494;28;19956;-46
2022/03/29 03:34:30;;;;;;;;;;;;;;;;;;5013257;28;19925;-55
2022/03/29 03:36:58;;;;;;;;;;;;;;;;;;5013235;28;19936;-51
2022/03/29 03:39:25;;;;;;;;;;;;;;;;;;5013428;28;19925;-46
2022/03/29 03:41:51;;;;;;;;;;;;;;;;;;5012986;28;19918;-57
2022/03/29 03:44:18;;;;;;;;;;;;;;;;;;5013742;28;19920;-54
2022/03/29 03:46:44;;;;;;;;;;;;;;;;;;5013420;28;20331;-56
2022/03/29 03:49:11;;;;;;;;;;;;;;;;;;5013260;28;20288;-50
2022/03/29 03:51:37;;;;;;;;;;;;;;;;;;5012764;28;19913;-55
2022/03/29 03:54:04;;;;;;;;;;;;;;;;;;5013134;28;20055;-59
2022/03/29 03:56:30;;;;;;;;;;;;;;;;;;5013151;28;19933;-56
2022/03/29 03:58:57;;;;;;;;;;;;;;;;;;5013766;28;19916;-56
2022/03/29 04:01:23;;;;;;;;;;;;;;;;;;5013468;28;19916;-55
2022/03/29 04:03:50;;;;;;;;;;;;;;;;;;5013679;28;19917;-49
2022/03/29 04:06:16;;;;;;;;;;;;;;;;;;5012508;28;19935;-53
2022/03/29 04:08:43;;;;;;;;;;;;;;;;;;5013484;28;20379;-57
2022/03/29 04:11:09;;;;;;;;;;;;;;;;;;5013483;28;19952;-58
2022/03/29 04:13:36;;;;;;;;;;;;;;;;;;5012724;28;19909;-57
2022/03/29 04:16:02;;;;;;;;;;;;;;;;;;5013340;28;19969;-58
2022/03/29 04:18:29;;;;;;;;;;;;;;;;;;4995271;28;19916;-56
2022/03/29 04:20:55;;;;;;;;;;;;;;;;;;5012983;28;19916;-49
2022/03/29 04:23:22;;;;;;;;;;;;;;;;;;4995681;28;19916;-51
2022/03/29 04:25:48;;;;;;;;;;;;;;;;;;5012754;28;20003;-48
2022/03/29 04:28:15;;;;;;;;;;;;;;;;;;5013002;28;19971;-56
2022/03/29 04:30:41;;;;;;;;;;;;;;;;;;5012641;28;19917;-57
2022/03/29 04:33:08;;;;;;;;;;;;;;;;;;4994435;28;20276;-48
2022/03/29 04:35:34;;;;;;;;;;;;;;;;;;5012770;28;19918;-57
2022/03/29 04:38:01;;;;;;;;;;;;;;;;;;5011323;28;19910;-58
2022/03/29 04:40:27;;;;;;;;;;;;;;;;;;5011933;28;20347;-57
2022/03/29 04:42:53;;;;;;;;;;;;;;;;;;5012778;28;19909;-57
2022/03/29 04:45:20;;;;;;;;;;;;;;;;;;5012637;28;20044;-52
2022/03/29 04:47:46;;;;;;;;;;;;;;;;;;5012237;28;19918;-55
2022/03/29 04:50:13;;;;;;;;;;;;;;;;;;5012807;28;19985;-56
2022/03/29 04:52:44;;;;;;;;;;;;;;;;;;5012881;28;20328;-59
2022/03/29 04:55:10;;;;;;;;;;;;;;;;;;5012440;28;19910;-57
2022/03/29 04:57:37;;;;;;;;;;;;;;;;;;5012330;28;19913;-59
2022/03/29 05:00:04;;;;;;;;;;;;;;;;;;5012577;28;19956;-58
2022/03/29 05:02:31;;;;;;;;;;;;;;;;;;5012105;28;19996;-56
2022/03/29 05:04:57;;;;;;;;;;;;;;;;;;5012777;28;19975;-55
2022/03/29 05:07:24;;;;;;;;;;;;;;;;;;5012227;28;19992;-58
2022/03/29 05:09:50;;;;;;;;;;;;;;;;;;5012699;28;19933;-55
2022/03/29 05:12:17;;;;;;;;;;;;;;;;;;4994228;28;19953;-59
2022/03/29 05:14:43;;;;;;;;;;;;;;;;;;5012195;28;20368;-52
2022/03/29 05:17:09;;;;;;;;;;;;;;;;;;5011972;28;19909;-55
2022/03/29 05:19:36;;;;;;;;;;;;;;;;;;5012180;28;19944;-58
2022/03/29 05:22:02;;;;;;;;;;;;;;;;;;5012869;28;19909;-48
2022/03/29 05:24:29;;;;;;;;;;;;;;;;;;5012656;28;19910;-54
2022/03/29 05:26:55;;;;;;;;;;;;;;;;;;5012283;28;19916;-55
2022/03/29 05:29:25;;;;;;;;;;;;;;;;;;5012004;28;20016;-57
2022/03/29 05:31:51;;;;;;;;;;;;;;;;;;5012058;28;19944;-51
2022/03/29 05:34:18;;;;;;;;;;;;;;;;;;5011876;28;19945;-53
2022/03/29 05:36:45;;;;;;;;;;;;;;;;;;5012182;28;19914;-53
2022/03/29 05:39:13;;;;;;;;;;;;;;;;;;5011559;28;19921;-55
2022/03/29 05:41:39;;;;;;;;;;;;;;;;;;5011588;28;20353;-54
2022/03/29 05:44:06;;;;;;;;;;;;;;;;;;5012075;28;19932;-57
2022/03/29 05:49:17;;;;;;;;;;;;;;;;;;5015614;28;19924;-56
2022/03/29 05:51:43;;;;;;;;;;;;;;;;;;5015241;28;19956;-58
2022/03/29 05:54:10;;;;;;;;;;;;;;;;;;5015658;28;19945;-57
2022/03/29 05:56:36;;;;;;;;;;;;;;;;;;5015191;28;19909;-58
2022/03/29 05:59:03;;;;;;;;;;;;;;;;;;5015791;28;19963;-55
2022/03/29 06:01:29;;;;;;;;;;;;;;;;;;5015390;28;20327;-52
2022/03/29 06:03:56;;;;;;;;;;;;;;;;;;5015858;28;19932;-57
2022/03/29 06:06:22;;;;;;;;;;;;;;;;;;5015097;28;20000;-48
2022/03/29 06:08:48;;;;;;;;;;;;;;;;;;5015608;28;19928;-48
2022/03/29 06:11:15;;;;;;;;;;;;;;;;;;5015363;28;20006;-49
2022/03/29 06:13:42;;;;;;;;;;;;;;;;;;5015155;28;19916;-52
2022/03/29 06:16:09;;;;;;;;;;;;;;;;;;5015478;28;20363;-56
2022/03/29 06:18:35;;;;;;;;;;;;;;;;;;5015183;28;20336;-50
2022/03/29 06:21:02;;;;;;;;;;;;;;;;;;5014814;28;20356;-53
2022/03/29 06:23:29;;;;;;;;;;;;;;;;;;5015186;28;19913;-54
2022/03/29 06:25:55;;;;;;;;;;;;;;;;;;5013102;28;19910;-56
2022/03/29 06:28:22;;;;;;;;;;;;;;;;;;5013371;28;19917;-55
2022/03/29 06:30:48;;;;;;;;;;;;;;;;;;5014096;28;19968;-51
2022/03/29 06:33:16;;;;;;;;;;;;;;;;;;5014028;28;19917;-53
2022/03/29 06:35:42;;;;;;;;;;;;;;;;;;5014721;28;19963;-57
2022/03/29 06:38:09;;;;;;;;;;;;;;;;;;5014676;28;19929;-49
2022/03/29 06:40:35;;;;;;;;;;;;;;;;;;5014728;28;19924;-51
2022/03/29 06:43:02;;;;;;;;;;;;;;;;;;5014798;28;20015;-56
2022/03/29 06:45:28;;;;;;;;;;;;;;;;;;5014635;28;19914;-57
2022/03/29 06:47:55;;;;;;;;;;;;;;;;;;5014412;28;20345;-48
2022/03/29 06:50:21;;;;;;;;;;;;;;;;;;5013798;28;19985;-47
2022/03/29 06:52:47;;;;;;;;;;;;;;;;;;5014288;28;20332;-54
2022/03/29 06:55:14;;;;;;;;;;;;;;;;;;5014748;28;19964;-59
2022/03/29 06:57:40;;;;;;;;;;;;;;;;;;5013830;28;19916;-57
2022/03/29 07:00:07;;;;;;;;;;;;;;;;;;5014904;28;19916;-49
2022/03/29 07:02:34;;;;;;;;;;;;;;;;;;5013778;28;19910;-53
2022/03/29 07:05:00;;;;;;;;;;;;;;;;;;5014481;28;20000;-52
2022/03/29 07:07:27;;;;;;;;;;;;;;;;;;5013718;28;19997;-53
2022/03/29 07:12:38;;;;;;;;;;;;;;;;;;5014450;28;20347;-60
2022/03/29 07:15:04;;;;;;;;;;;;;;;;;;5014258;28;20328;-50
2022/03/29 07:17:31;;;;;;;;;;;;;;;;;;5013528;28;19909;-55
2022/03/29 07:19:57;;;;;;;;;;;;;;;;;;5014358;28;19910;-50
2022/03/29 07:22:25;;;;;;;;;;;;;;;;;;5014533;28;19909;-55
2022/03/29 07:24:51;;;;;;;;;;;;;;;;;;5014137;28;20000;-53
2022/03/29 07:27:18;;;;;;;;;;;;;;;;;;5014352;28;19910;-48
2022/03/29 07:29:44;;;;;;;;;;;;;;;;;;5007094;28;19965;-41
2022/03/29 07:32:10;;;;;;;;;;;;;;;;;;5011549;28;19917;-46
2022/03/29 07:34:37;;;;;;;;;;;;;;;;;;5012115;28;19909;-47
2022/03/29 07:37:05;;;;;;;;;;;;;;;;;;5014769;28;19917;-55
2022/03/29 07:39:31;;;;;;;;;;;;;;;;;;5012492;28;19922;-50
2022/03/29 07:41:58;;;;;;;;;;;;;;;;;;5014106;28;19913;-46
2022/03/29 07:44:24;;;;;;;;;;;;;;;;;;5013794;28;19916;-58
2022/03/29 07:46:51;;;;;;;;;;;;;;;;;;5014080;28;19914;-50
2022/03/29 07:49:17;;;;;;;;;;;;;;;;;;5014005;28;20012;-58
2022/03/29 07:51:44;;;;;;;;;;;;;;;;;;5013290;28;19909;-54
2022/03/29 07:54:10;;;;;;;;;;;;;;;;;;5013724;28;19941;-55
2022/03/29 07:56:36;;;;;;;;;;;;;;;;;;5013328;28;19915;-57
2022/03/29 07:59:03;;;;;;;;;;;;;;;;;;5013880;28;19910;-56
2022/03/29 08:01:30;;;;;;;;;;;;;;;;;;5013261;28;19909;-50
2022/03/29 08:03:56;;;;;;;;;;;;;;;;;;5013031;28;19971;-57
2022/03/29 08:06:23;;;;;;;;;;;;;;;;;;5013605;28;20372;-54
2022/03/29 08:08:49;;;;;;;;;;;;;;;;;;5013336;28;20388;-54
2022/03/29 08:11:16;;;;;;;;;;;;;;;;;;5013993;28;20000;-55
2022/03/29 08:13:42;;;;;;;;;;;;;;;;;;5013981;28;19910;-58
2022/03/29 08:16:09;;;;;;;;;;;;;;;;;;5013215;28;19996;-60
2022/03/29 08:18:38;;;;;;;;;;;;;;;;;;5013771;28;19909;-57
2022/03/29 08:21:48;;;;;;;;;;;;;;;;;;5013567;28;19968;-57
2022/03/29 08:23:50;;;;;;;;;;;;;;;;;;5013081;28;19910;-57
2022/03/29 08:26:17;;;;;;;;;;;;;;;;;;5013848;28;19909;-55
2022/03/29 08:28:44;;;;;;;;;;;;;;;;;;5013244;28;20384;-55
2022/03/29 08:31:11;;;;;;;;;;;;;;;;;;5013444;28;19910;-57
2022/03/29 08:33:37;;;;;;;;;;;;;;;;;;5006529;28;19921;-46
2022/03/29 08:36:04;;;;;;;;;;;;;;;;;;5010023;28;20003;-52
2022/03/29 08:38:30;;;;;;;;;;;;;;;;;;5011491;28;19917;-56
2022/03/29 08:40:57;;;;;;;;;;;;;;;;;;5012282;28;19956;-46
2022/03/29 08:43:24;;;;;;;;;;;;;;;;;;5010710;28;19909;-43
2022/03/29 08:45:51;;;;;;;;;;;;;;;;;;5008275;28;19941;-45
2022/03/29 08:48:17;;;;;;;;;;;;;;;;;;4992004;28;19921;-41
2022/03/29 08:50:45;;;;;;;;;;;;;;;;;;5011534;28;19992;-40
2022/03/29 08:53:12;;;;;;;;;;;;;;;;;;5011300;28;19964;-47
2022/03/29 08:55:42;;;;;;;;;;;;;;;;;;5006765;28;20001;-44
2022/03/29 08:58:09;;;;;;;;;;;;;;;;;;5009880;28;20370;-40
2022/03/29 09:00:35;;;;;;;;;;;;;;;;;;5011114;28;19917;-39
2022/03/29 09:03:02;;;;;;;;;;;;;;;;;;5011527;28;19910;-39
2022/03/29 09:05:29;;;;;;;;;;;;;;;;;;5003139;28;19924;-41
2022/03/29 09:07:56;;;;;;;;;;;;;;;;;;5010894;28;19974;-40
2022/03/29 09:10:22;;;;;;;;;;;;;;;;;;5011193;28;19910;-43
2022/03/29 09:12:49;;;;;;;;;;;;;;;;;;5009473;28;19909;-48
2022/03/29 09:15:16;;;;;;;;;;;;;;;;;;5005179;28;19917;-56
2022/03/29 09:17:43;;;;;;;;;;;;;;;;;;5006278;28;19913;-40
2022/03/29 09:20:10;;;;;;;;;;;;;;;;;;5010289;28;20000;-49
2022/03/29 09:22:36;;;;;;;;;;;;;;;;;;5015062;28;19913;-40
2022/03/29 09:25:03;;;;;;;;;;;;;;;;;;5013959;28;20379;-41
2022/03/29 09:27:29;;;;;;;;;;;;;;;;;;5010327;28;19910;-44
2022/03/29 09:29:56;;;;;;;;;;;;;;;;;;5015057;28;20007;-44
2022/03/29 09:32:23;;;;;;;;;;;;;;;;;;5014917;28;19910;-42
2022/03/29 09:34:49;;;;;;;;;;;;;;;;;;5014007;28;19963;-44
2022/03/29 09:37:17;;;;;;;;;;;;;;;;;;5009543;28;19939;-44
2022/03/29 09:39:49;;;;;;;;;;;;;;;;;;5014290;28;19922;-52
2022/03/29 09:42:16;;;;;;;;;;;;;;;;;;5015267;28;20004;-40
2022/03/29 09:44:42;;;;;;;;;;;;;;;;;;5012578;28;19909;-52
2022/03/29 09:47:09;;;;;;;;;;;;;;;;;;5011261;28;20348;-48
2022/03/29 09:49:35;;;;;;;;;;;;;;;;;;5014485;28;19921;-42
2022/03/29 09:52:02;;;;;;;;;;;;;;;;;;5012986;28;19909;-46
2022/03/29 09:54:28;;;;;;;;;;;;;;;;;;5014120;28;19913;-39
2022/03/29 09:56:57;;;;;;;;;;;;;;;;;;4992156;28;19910;-41
2022/03/29 09:59:24;;;;;;;;;;;;;;;;;;5014263;28;19967;-55
2022/03/29 10:01:51;;;;;;;;;;;;;;;;;;5014876;28;19913;-41
2022/03/29 10:04:19;;;;;;;;;;;;;;;;;;5013994;28;19955;-42
2022/03/29 10:06:45;;;;;;;;;;;;;;;;;;5009471;28;19913;-42
2022/03/29 10:09:27;;;;;;;;;;;;;;;;;;4996599;28;20268;-43
2022/03/29 10:11:55;;;;;;;;;;;;;;;;;;5012288;28;19913;-48
2022/03/29 10:14:22;;;;;;;;;;;;;;;;;;5013260;28;19996;-45
2022/03/29 10:16:49;;;;;;;;;;;;;;;;;;5008848;28;19917;-53
2022/03/29 10:19:15;;;;;;;;;;;;;;;;;;5014176;28;20279;-44
2022/03/29 10:21:42;;;;;;;;;;;;;;;;;;5015388;28;20300;-52
2022/03/29 10:24:08;;;;;;;;;;;;;;;;;;5015063;28;20398;-50
2022/03/29 10:26:35;;;;;;;;;;;;;;;;;;5014466;28;20379;-53
2022/03/29 10:29:01;;;;;;;;;;;;;;;;;;4997885;28;19924;-53
2022/03/29 10:31:31;;;;;;;;;;;;;;;;;;5014587;28;19914;-52
2022/03/29 10:33:58;;;;;;;;;;;;;;;;;;5015529;28;20129;-51
2022/03/29 10:36:24;;;;;;;;;;;;;;;;;;5015846;28;19913;-46
2022/03/29 10:38:51;;;;;;;;;;;;;;;;;;5009230;28;19917;-51
2022/03/29 10:41:18;;;;;;;;;;;;;;;;;;5013973;28;19924;-46
2022/03/29 10:43:44;;;;;;;;;;;;;;;;;;5012020;28;20514;-48
2022/03/29 10:46:11;;;;;;;;;;;;;;;;;;5013176;28;20363;-52
2022/03/29 10:48:37;;;;;;;;;;;;;;;;;;5013118;28;19917;-50
2022/03/29 10:51:04;;;;;;;;;;;;;;;;;;5014077;28;19913;-44
2022/03/29 10:53:30;;;;;;;;;;;;;;;;;;5014559;28;19956;-55
2022/03/29 10:55:57;;;;;;;;;;;;;;;;;;5013584;28;19910;-51
2022/03/29 10:58:23;;;;;;;;;;;;;;;;;;5015270;28;19952;-49
2022/03/29 11:00:50;;;;;;;;;;;;;;;;;;5015174;28;19914;-49
2022/03/29 11:03:20;;;;;;;;;;;;;;;;;;5015199;28;19917;-50
2022/03/29 11:05:47;;;;;;;;;;;;;;;;;;5015079;28;19917;-53
2022/03/29 11:08:13;;;;;;;;;;;;;;;;;;5011545;28;19979;-44
2022/03/29 11:10:40;;;;;;;;;;;;;;;;;;5014567;28;19909;-50
2022/03/29 11:13:06;;;;;;;;;;;;;;;;;;5014928;28;19910;-50
2022/03/29 11:15:37;;;;;;;;;;;;;;;;;;5014207;28;19909;-56
2022/03/29 11:18:07;;;;;;;;;;;;;;;;;;5014886;28;19909;-40
2022/03/29 11:20:34;;;;;;;;;;;;;;;;;;5013916;28;19913;-47
2022/03/29 11:23:00;;;;;;;;;;;;;;;;;;5014130;28;19909;-57
2022/03/29 11:25:27;;;;;;;;;;;;;;;;;;5014481;28;19948;-53
2022/03/29 11:27:53;;;;;;;;;;;;;;;;;;5014585;28;19918;-50
2022/03/29 11:30:20;;;;;;;;;;;;;;;;;;5014123;28;19963;-43
2022/03/29 11:32:47;;;;;;;;;;;;;;;;;;5015085;28;19905;-54
2022/03/29 11:35:19;;;;;;;;;;;;;;;;;;5014384;28;19909;-53
2022/03/29 11:37:45;;;;;;;;;;;;;;;;;;5013814;28;19910;-53
2022/03/29 11:40:12;;;;;;;;;;;;;;;;;;5014142;28;19922;-56
2022/03/29 11:42:38;;;;;;;;;;;;;;;;;;5014148;28;19910;-56
2022/03/29 11:45:05;;;;;;;;;;;;;;;;;;5013749;28;19952;-55
2022/03/29 11:47:32;;;;;;;;;;;;;;;;;;5013846;28;19909;-60
2022/03/29 11:49:58;;;;;;;;;;;;;;;;;;4996592;28;20005;-59
2022/03/29 11:52:24;;;;;;;;;;;;;;;;;;5013715;28;19910;-56
2022/03/29 11:54:54;;;;;;;;;;;;;;;;;;5013782;28;19910;-57
2022/03/29 11:57:21;;;;;;;;;;;;;;;;;;5014317;28;19995;-56
2022/03/29 11:59:47;;;;;;;;;;;;;;;;;;5013943;28;20041;-53
2022/03/29 12:02:14;;;;;;;;;;;;;;;;;;5014303;28;20379;-57
2022/03/29 12:04:50;;;;;;;;;;;;;;;;;;5110753;27;20015;-57
2022/03/29 12:07:17;;;;;;;;;;;;;;;;;;5110779;28;19912;-57
2022/03/29 12:09:43;;;;;;;;;;;;;;;;;;5110582;28;20350;-58
2022/03/29 12:12:09;;;;;;;;;;;;;;;;;;5110869;28;20374;-56
2022/03/29 12:14:36;;;;;;;;;;;;;;;;;;5110554;28;19908;-57
2022/03/29 12:17:08;;;;;;;;;;;;;;;;;;5110640;28;19968;-55
2022/03/29 12:19:34;;;;;;;;;;;;;;;;;;5110666;28;19947;-57
2022/03/29 12:22:01;;;;;;;;;;;;;;;;;;5110624;28;19908;-58
2022/03/29 12:24:28;;;;;;;;;;;;;;;;;;5110629;28;20438;-54
2022/03/29 12:27:01;;;;;;;;;;;;;;;;;;5110871;28;19968;-54
2022/03/29 12:29:27;;;;;;;;;;;;;;;;;;5109202;28;19994;-57
2022/03/29 12:31:54;;;;;;;;;;;;;;;;;;5110580;28;19919;-54
2022/03/29 12:34:20;;;;;;;;;;;;;;;;;;5110574;28;19912;-55
2022/03/29 12:36:46;;;;;;;;;;;;;;;;;;5110613;28;19908;-56
2022/03/29 12:39:13;;;;;;;;;;;;;;;;;;5110496;28;19969;-57
2022/03/29 12:41:41;;;;;;;;;;;;;;;;;;5110216;28;19912;-56
2022/03/29 12:44:10;;;;;;;;;;;;;;;;;;5108818;28;19944;-56
2022/03/29 12:46:37;;;;;;;;;;;;;;;;;;5110439;28;19916;-56
2022/03/29 12:49:04;;;;;;;;;;;;;;;;;;5110275;28;19915;-57
2022/03/29 12:51:30;;;;;;;;;;;;;;;;;;5110265;28;19914;-57
2022/03/29 12:53:57;;;;;;;;;;;;;;;;;;5110396;28;19946;-51
2022/03/29 12:56:23;;;;;;;;;;;;;;;;;;5110199;28;20002;-56
2022/03/29 12:58:50;;;;;;;;;;;;;;;;;;5110305;28;19912;-54
2022/03/29 13:01:16;;;;;;;;;;;;;;;;;;5110214;28;19908;-52
2022/03/29 13:03:43;;;;;;;;;;;;;;;;;;5108382;28;19920;-53
2022/03/29 13:06:09;;;;;;;;;;;;;;;;;;5109892;28;20350;-52
2022/03/29 13:08:36;;;;;;;;;;;;;;;;;;5109886;28;19919;-53
2022/03/29 13:11:03;;;;;;;;;;;;;;;;;;5109702;28;20003;-53
2022/03/29 13:13:30;;;;;;;;;;;;;;;;;;5109350;28;19912;-55
2022/03/29 13:15:57;;;;;;;;;;;;;;;;;;5097272;28;19954;-56
2022/03/29 13:18:24;;;;;;;;;;;;;;;;;;5096211;28;19912;-55
2022/03/29 13:20:50;;;;;;;;;;;;;;;;;;5096088;28;19977;-54
2022/03/29 13:23:16;;;;;;;;;;;;;;;;;;5096164;28;19974;-57
2022/03/29 13:25:43;;;;;;;;;;;;;;;;;;5096029;28;19912;-57
2022/03/29 13:28:10;;;;;;;;;;;;;;;;;;5095775;28;20415;-56
2022/03/29 13:30:36;;;;;;;;;;;;;;;;;;5090788;28;20382;-49
2022/03/29 13:33:03;;;;;;;;;;;;;;;;;;5093785;28;20381;-57
2022/03/29 13:35:29;;;;;;;;;;;;;;;;;;5094928;28;20354;-56
2022/03/29 13:37:56;;;;;;;;;;;;;;;;;;5090184;28;19908;-52
2022/03/29 13:40:22;;;;;;;;;;;;;;;;;;5094439;28;19912;-56
2022/03/29 13:42:49;;;;;;;;;;;;;;;;;;5093872;28;19912;-57
2022/03/29 13:45:15;;;;;;;;;;;;;;;;;;5089942;28;19916;-57
2022/03/29 13:47:42;;;;;;;;;;;;;;;;;;5094273;28;19999;-41
2022/03/29 13:50:08;;;;;;;;;;;;;;;;;;5096069;28;19931;-40
2022/03/29 13:52:35;;;;;;;;;;;;;;;;;;5093249;28;19934;-49
2022/03/29 13:55:01;;;;;;;;;;;;;;;;;;5091831;28;20502;-49
2022/03/29 13:57:28;;;;;;;;;;;;;;;;;;5092703;28;19912;-48
2022/03/29 13:59:54;;;;;;;;;;;;;;;;;;5093204;28;19912;-46
2022/03/29 14:02:21;;;;;;;;;;;;;;;;;;5092732;28;19932;-50
2022/03/29 14:04:47;;;;;;;;;;;;;;;;;;5092084;28;20374;-47
2022/03/29 14:07:14;;;;;;;;;;;;;;;;;;5093076;28;20263;-56
2022/03/29 14:09:40;;;;;;;;;;;;;;;;;;5093631;28;20271;-41
2022/03/29 14:12:07;;;;;;;;;;;;;;;;;;5092302;28;19908;-52
2022/03/29 14:14:33;;;;;;;;;;;;;;;;;;5087414;28;19912;-53
2022/03/29 14:17:00;;;;;;;;;;;;;;;;;;5094125;28;19916;-55
2022/03/29 14:19:27;;;;;;;;;;;;;;;;;;5091743;28;20359;-54
2022/03/29 14:21:53;;;;;;;;;;;;;;;;;;5093360;28;19912;-57
2022/03/29 14:24:20;;;;;;;;;;;;;;;;;;5089703;28;20286;-45
2022/03/29 14:26:46;;;;;;;;;;;;;;;;;;5092791;28;19915;-57
2022/03/29 14:29:13;;;;;;;;;;;;;;;;;;5091663;28;20014;-58
2022/03/29 14:31:40;;;;;;;;;;;;;;;;;;5092022;28;19912;-57
2022/03/29 14:34:07;;;;;;;;;;;;;;;;;;5098266;28;19912;-55
2022/03/29 14:36:33;;;;;;;;;;;;;;;;;;5093387;27;20286;-59
2022/03/29 14:38:59;;;;;;;;;;;;;;;;;;5092677;28;19963;-57
2022/03/29 14:41:26;;;;;;;;;;;;;;;;;;5092234;28;19908;-52
2022/03/29 14:43:52;;;;;;;;;;;;;;;;;;5093729;28;19987;-49
2022/03/29 14:46:19;;;;;;;;;;;;;;;;;;5088708;28;19965;-52
2022/03/29 14:48:45;;;;;;;;;;;;;;;;;;5093196;28;19998;-56
2022/03/29 14:51:12;;;;;;;;;;;;;;;;;;5092639;28;19909;-57
2022/03/29 14:53:41;;;;;;;;;;;;;;;;;;5091248;28;20261;-57
2022/03/29 14:56:07;;;;;;;;;;;;;;;;;;5088253;28;20084;-52
2022/03/29 14:58:34;;;;;;;;;;;;;;;;;;5094247;28;19951;-50
2022/03/29 15:01:00;;;;;;;;;;;;;;;;;;5091880;28;20006;-39
2022/03/29 15:03:26;;;;;;;;;;;;;;;;;;5093056;28;20014;-55
2022/03/29 15:05:53;;;;;;;;;;;;;;;;;;5092270;28;19908;-56
2022/03/29 15:08:19;;;;;;;;;;;;;;;;;;5093603;28;19944;-58
2022/03/29 15:10:49;;;;;;;;;;;;;;;;;;5094057;28;19984;-57
2022/03/29 15:13:15;;;;;;;;;;;;;;;;;;5093946;28;19908;-53
2022/03/29 15:15:42;;;;;;;;;;;;;;;;;;5093821;28;19908;-54
2022/03/29 15:18:08;;;;;;;;;;;;;;;;;;5094297;28;20016;-56
2022/03/29 15:20:35;;;;;;;;;;;;;;;;;;5093929;28;19908;-54
2022/03/29 15:23:02;;;;;;;;;;;;;;;;;;5093772;28;20259;-51
2022/03/29 15:25:28;;;;;;;;;;;;;;;;;;5093477;28;19947;-57
2022/03/29 15:27:55;;;;;;;;;;;;;;;;;;5093646;28;19908;-57
2022/03/29 15:30:22;;;;;;;;;;;;;;;;;;5091519;28;19977;-55
2022/03/29 15:32:48;;;;;;;;;;;;;;;;;;5093730;28;19908;-56
2022/03/29 15:35:15;;;;;;;;;;;;;;;;;;5093968;28;19915;-51
2022/03/29 15:37:42;;;;;;;;;;;;;;;;;;5093501;28;19990;-51
2022/03/29 15:40:08;;;;;;;;;;;;;;;;;;5093652;28;19995;-55
2022/03/29 15:42:36;;;;;;;;;;;;;;;;;;5093252;28;20006;-55
2022/03/29 15:45:02;;;;;;;;;;;;;;;;;;5094085;28;19912;-56
2022/03/29 15:47:29;;;;;;;;;;;;;;;;;;5093326;28;19908;-57
2022/03/29 15:49:55;;;;;;;;;;;;;;;;;;5093532;28;19908;-52
2022/03/29 15:52:22;;;;;;;;;;;;;;;;;;5093525;28;19940;-54
2022/03/29 15:54:48;;;;;;;;;;;;;;;;;;5093348;28;20354;-55
2022/03/29 15:57:16;;;;;;;;;;;;;;;;;;5093390;28;19915;-56
2022/03/29 15:59:43;;;;;;;;;;;;;;;;;;5093026;28;19908;-52
2022/03/29 16:02:09;;;;;;;;;;;;;;;;;;5093267;28;20041;-48
2022/03/29 16:04:36;;;;;;;;;;;;;;;;;;5093140;28;19967;-55
2022/03/29 16:07:05;;;;;;;;;;;;;;;;;;5093150;28;20278;-52
2022/03/29 16:09:31;;;;;;;;;;;;;;;;;;5092924;28;19909;-53
2022/03/29 16:11:58;;;;;;;;;;;;;;;;;;5093626;28;19912;-51
2022/03/29 16:14:24;;;;;;;;;;;;;;;;;;5093314;28;19908;-56
2022/03/29 16:16:51;;;;;;;;;;;;;;;;;;5093281;28;19908;-55
2022/03/29 16:19:17;;;;;;;;;;;;;;;;;;5093142;28;19974;-41
2022/03/29 16:21:44;;;;;;;;;;;;;;;;;;5093021;28;19912;-47
2022/03/29 16:24:10;;;;;;;;;;;;;;;;;;5093117;28;19946;-51
2022/03/29 16:26:37;;;;;;;;;;;;;;;;;;5093467;28;19912;-57
2022/03/29 16:29:03;;;;;;;;;;;;;;;;;;5092937;28;19915;-54
2022/03/29 16:31:30;;;;;;;;;;;;;;;;;;5093089;28;19912;-43
2022/03/29 16:33:56;;;;;;;;;;;;;;;;;;5092981;28;19963;-50
2022/03/29 16:36:23;;;;;;;;;;;;;;;;;;5093108;28;19912;-42
2022/03/29 16:38:49;;;;;;;;;;;;;;;;;;5092921;28;20012;-43
2022/03/29 16:41:16;;;;;;;;;;;;;;;;;;5092870;28;19991;-43
2022/03/29 16:43:43;;;;;;;;;;;;;;;;;;5092403;28;19923;-56
2022/03/29 16:46:09;;;;;;;;;;;;;;;;;;5093035;28;20298;-42
2022/03/29 16:48:36;;;;;;;;;;;;;;;;;;5092931;28;19908;-52